Time;durP1;ratioP1;P1;durP2;ratioP2;P2;SDS_P1;SDS_P2;PMS_P1;PMS_P2;Temp;Humidity;BMP_temperature;BMP_pressure;BME280_temperature;BME280_humidity;BME280_pressure;Samples;Min_cycle;Max_cycle;Signal;HPM_P1;HPM_P2
2023/05/16 00:01:34;;;;;;;15.55;1.38;;;8.30;99.90;;;;;;5055009;28;20060;-57
2023/05/16 00:04:02;;;;;;;6.43;1.13;;;8.20;99.90;;;;;;5073207;28;20040;-57
2023/05/16 00:06:30;;;;;;;8.45;1.30;;;8.20;99.90;;;;;;5065985;28;20059;-60
2023/05/16 00:08:59;;;;;;;9.77;1.48;;;8.20;99.90;;;;;;5062572;28;20072;-58
2023/05/16 00:11:27;;;;;;;6.45;1.55;;;8.10;99.90;;;;;;5056017;28;20036;-59
2023/05/16 00:13:55;;;;;;;6.78;1.50;;;8.10;99.90;;;;;;5064523;28;20618;-58
2023/05/16 00:16:24;;;;;;;8.20;1.20;;;8.00;99.90;;;;;;5059931;28;20048;-58
2023/05/16 00:18:52;;;;;;;8.23;1.40;;;8.00;99.90;;;;;;5058982;28;20049;-57
2023/05/16 00:21:23;;;;;;;9.93;1.35;;;8.00;99.90;;;;;;5047198;28;20500;-59
2023/05/16 00:23:52;;;;;;;12.23;1.30;;;7.90;99.90;;;;;;5053615;28;20052;-59
2023/05/16 00:26:20;;;;;;;8.20;1.05;;;7.90;99.90;;;;;;5065012;28;20154;-58
2023/05/16 00:28:48;;;;;;;8.15;0.98;;;7.90;99.90;;;;;;5059249;28;20041;-59
2023/05/16 00:31:16;;;;;;;10.02;1.55;;;7.80;99.90;;;;;;5048143;28;20041;-59
2023/05/16 00:33:44;;;;;;;8.30;1.38;;;7.80;99.90;;;;;;5073704;28;20424;-60
2023/05/16 00:36:12;;;;;;;3.30;0.82;;;7.80;99.90;;;;;;5065115;28;20398;-60
2023/05/16 00:38:40;;;;;;;3.58;0.80;;;7.70;99.90;;;;;;5066043;28;20063;-60
2023/05/16 00:41:08;;;;;;;4.38;1.00;;;7.70;99.90;;;;;;5054840;28;20399;-58
2023/05/16 00:43:38;;;;;;;8.70;1.63;;;7.70;99.90;;;;;;5070395;28;20052;-57
2023/05/16 00:46:06;;;;;;;12.10;1.58;;;7.70;99.90;;;;;;5056453;28;20044;-59
2023/05/16 00:48:35;;;;;;;8.70;1.57;;;7.70;99.90;;;;;;5071849;28;20048;-58
2023/05/16 00:51:03;;;;;;;6.05;1.30;;;7.70;99.90;;;;;;5068800;28;20052;-57
2023/05/16 00:53:31;;;;;;;12.73;1.90;;;7.70;99.90;;;;;;5065809;28;20037;-56
2023/05/16 00:55:59;;;;;;;13.55;1.75;;;7.60;99.90;;;;;;5057209;28;20460;-58
2023/05/16 00:58:31;;;;;;;9.68;1.30;;;7.60;99.90;;;;;;5057525;28;20052;-57
2023/05/16 01:01:01;;;;;;;7.80;2.20;;;7.60;99.90;;;;;;5066977;28;20052;-58
2023/05/16 01:03:30;;;;;;;5.18;1.17;;;7.60;99.90;;;;;;5059031;28;20037;-57
2023/05/16 01:05:59;;;;;;;7.30;1.50;;;7.60;99.90;;;;;;5054057;28;20536;-57
2023/05/16 01:08:27;;;;;;;5.07;1.55;;;7.50;99.90;;;;;;5060901;28;20346;-58
2023/05/16 01:10:55;;;;;;;7.55;1.13;;;7.50;99.90;;;;;;5055259;28;20057;-58
2023/05/16 01:13:51;;;;;;;7.28;1.38;;;7.50;99.90;;;;;;5064698;28;20055;-57
2023/05/16 01:16:43;;;;;;;4.28;1.15;;;7.50;99.90;;;;;;5037736;28;20048;-58
2023/05/16 01:19:33;;;;;;;11.43;1.60;;;7.50;99.90;;;;;;5065675;28;20412;-59
2023/05/16 01:22:28;;;;;;;10.45;1.42;;;7.40;99.90;;;;;;5050300;28;20049;-58
2023/05/16 01:25:10;;;;;;;12.90;1.60;;;7.30;99.90;;;;;;5061268;28;20048;-57
2023/05/16 01:27:40;;;;;;;8.27;1.65;;;7.30;99.90;;;;;;5080662;28;20043;-57
2023/05/16 01:30:19;;;;;;;7.50;1.20;;;7.30;99.90;;;;;;5064813;28;20044;-58
2023/05/16 01:32:46;;;;;;;8.02;1.33;;;7.30;99.90;;;;;;5061029;28;20051;-57
2023/05/16 01:35:16;;;;;;;16.15;1.83;;;7.30;99.90;;;;;;5060049;28;20049;-56
2023/05/16 01:38:00;;;;;;;9.18;1.42;;;7.20;99.90;;;;;;5055565;28;20045;-58
2023/05/16 01:40:28;;;;;;;5.60;1.77;;;7.20;99.90;;;;;;5063824;28;20045;-58
2023/05/16 01:42:58;;;;;;;13.75;1.35;;;7.10;99.90;;;;;;5055706;28;20056;-57
2023/05/16 01:45:30;;;;;;;11.05;1.52;;;7.10;99.90;;;;;;5054358;28;20056;-57
2023/05/16 01:48:06;;;;;;;18.77;4.13;;;7.00;99.90;;;;;;5071004;28;20051;-58
2023/05/16 01:50:39;;;;;;;5.35;1.25;;;7.00;99.90;;;;;;5056800;28;20037;-58
2023/05/16 01:53:11;;;;;;;9.35;2.08;;;7.00;99.90;;;;;;5055386;28;20041;-57
2023/05/16 01:55:45;;;;;;;4.97;1.77;;;7.00;99.90;;;;;;5066359;28;20037;-57
2023/05/16 01:58:15;;;;;;;7.25;1.52;;;7.00;99.90;;;;;;5059370;28;20047;-56
2023/05/16 02:00:43;;;;;;;8.65;1.52;;;7.00;99.90;;;;;;5070483;28;20056;-57
2023/05/16 02:03:11;;;;;;;3.17;1.17;;;7.00;99.90;;;;;;5079605;28;20044;-57
2023/05/16 02:05:39;;;;;;;23.83;3.75;;;7.00;99.90;;;;;;5072128;28;20043;-57
2023/05/16 02:08:11;;;;;;;7.85;1.70;;;6.90;99.90;;;;;;5070377;28;20040;-57
2023/05/16 02:10:40;;;;;;;5.95;1.30;;;7.90;99.90;;;;;;5070969;28;20055;-57
2023/05/16 02:13:08;;;;;;;6.97;1.38;;;6.90;99.90;;;;;;5071571;28;20048;-56
2023/05/16 02:15:36;;;;;;;13.10;2.08;;;6.80;99.90;;;;;;5069386;28;20052;-58
2023/05/16 02:18:04;;;;;;;6.07;1.48;;;6.80;99.90;;;;;;5071251;28;20045;-56
2023/05/16 02:20:32;;;;;;;6.75;1.35;;;6.70;99.90;;;;;;5058649;28;20523;-56
2023/05/16 02:23:04;;;;;;;8.55;1.85;;;6.70;99.90;;;;;;5051204;28;20044;-58
2023/05/16 02:25:32;;;;;;;4.60;1.60;;;6.70;99.90;;;;;;5064290;28;20052;-57
2023/05/16 02:28:00;;;;;;;8.73;1.55;;;6.70;99.90;;;;;;5072090;28;20048;-57
2023/05/16 02:30:28;;;;;;;11.70;2.08;;;6.70;99.90;;;;;;5067145;28;20052;-58
2023/05/16 02:32:56;;;;;;;11.77;1.80;;;6.70;99.90;;;;;;5077368;28;20052;-58
2023/05/16 02:35:24;;;;;;;10.23;2.03;;;6.60;99.90;;;;;;5071645;28;20048;-58
2023/05/16 02:37:52;;;;;;;9.13;2.08;;;6.60;99.90;;;;;;5071734;28;20044;-59
2023/05/16 02:40:19;;;;;;;8.55;3.03;;;6.60;99.90;;;;;;5072062;28;20044;-59
2023/05/16 02:42:47;;;;;;;5.03;1.38;;;6.60;99.90;;;;;;5070191;28;20048;-59
2023/05/16 02:45:15;;;;;;;6.65;1.73;;;6.60;99.90;;;;;;5071292;28;20036;-59
2023/05/16 02:47:43;;;;;;;8.18;1.63;;;6.60;99.90;;;;;;5065639;28;20036;-61
2023/05/16 02:50:11;;;;;;;8.55;1.25;;;6.60;99.90;;;;;;5055210;28;20135;-60
2023/05/16 02:52:40;;;;;;;10.85;1.63;;;6.60;99.90;;;;;;5065451;28;20608;-61
2023/05/16 02:55:08;;;;;;;5.82;1.80;;;6.50;99.90;;;;;;5069217;28;20518;-59
2023/05/16 02:57:49;;;;;;;8.52;1.70;;;6.50;99.90;;;;;;5069749;28;20040;-59
2023/05/16 03:00:18;;;;;;;16.40;2.08;;;6.50;99.90;;;;;;5058828;28;20395;-59
2023/05/16 03:02:47;;;;;;;9.10;1.30;;;6.50;99.90;;;;;;5072043;28;20605;-60
2023/05/16 03:05:15;;;;;;;8.27;1.55;;;6.50;99.90;;;;;;5078440;28;20305;-60
2023/05/16 03:07:43;;;;;;;13.23;1.45;;;6.50;99.90;;;;;;5067939;28;20040;-60
2023/05/16 03:10:11;;;;;;;7.03;1.20;;;6.50;99.90;;;;;;5068255;28;20051;-60
2023/05/16 03:12:39;;;;;;;13.02;1.80;;;6.50;99.90;;;;;;5065952;28;20036;-59
2023/05/16 03:15:08;;;;;;;9.10;1.58;;;6.50;99.90;;;;;;5067423;28;20049;-58
2023/05/16 03:17:36;;;;;;;8.98;1.65;;;6.50;99.90;;;;;;5067798;28;20044;-59
2023/05/16 03:20:08;;;;;;;16.27;2.05;;;6.40;99.90;;;;;;5064335;28;20546;-57
2023/05/16 03:22:36;;;;;;;8.93;1.15;;;6.40;99.90;;;;;;5067093;28;20045;-60
2023/05/16 03:25:05;;;;;;;5.78;1.58;;;6.40;99.90;;;;;;5069383;28;20045;-58
2023/05/16 03:27:32;;;;;;;11.82;1.65;;;6.40;99.90;;;;;;5070602;28;20040;-57
2023/05/16 03:30:01;;;;;;;8.80;1.40;;;6.40;99.90;;;;;;5067486;28;20045;-58
2023/05/16 03:32:29;;;;;;;8.70;1.47;;;6.40;99.90;;;;;;5073602;28;20048;-59
2023/05/16 03:34:57;;;;;;;6.07;1.08;;;6.40;99.90;;;;;;5071190;28;20037;-58
2023/05/16 03:37:25;;;;;;;6.85;1.45;;;6.30;99.90;;;;;;5067410;28;20044;-58
2023/05/16 03:39:54;;;;;;;6.38;1.15;;;6.30;99.90;;;;;;5064102;28;20041;-59
2023/05/16 03:42:22;;;;;;;5.68;1.02;;;6.30;99.90;;;;;;5065938;28;20049;-59
2023/05/16 03:44:50;;;;;;;7.13;1.58;;;6.30;99.90;;;;;;5049861;28;20044;-59
2023/05/16 03:47:18;;;;;;;6.13;1.58;;;6.20;99.90;;;;;;5069079;28;20403;-58
2023/05/16 03:49:46;;;;;;;10.18;2.28;;;6.20;99.90;;;;;;5068345;28;20033;-58
2023/05/16 03:52:14;;;;;;;24.38;2.03;;;6.20;99.90;;;;;;5068814;28;20051;-57
2023/05/16 03:54:42;;;;;;;7.80;1.30;;;6.10;99.90;;;;;;5069704;28;20043;-58
2023/05/16 03:57:09;;;;;;;10.68;2.03;;;6.10;99.90;;;;;;5068223;28;20055;-58
2023/05/16 03:59:38;;;;;;;10.85;1.25;;;6.10;99.90;;;;;;5060885;28;20037;-59
2023/05/16 04:02:05;;;;;;;5.90;1.35;;;6.10;99.90;;;;;;5070363;28;20071;-60
2023/05/16 04:04:33;;;;;;;5.57;1.52;;;6.10;99.90;;;;;;5066375;28;20055;-58
2023/05/16 04:07:01;;;;;;;6.18;1.40;;;6.10;99.90;;;;;;5059620;28;20048;-58
2023/05/16 04:09:29;;;;;;;7.38;2.03;;;6.10;99.90;;;;;;5064517;28;20055;-58
2023/05/16 04:12:00;;;;;;;6.13;1.77;;;6.10;99.90;;;;;;5070380;28;20712;-58
2023/05/16 04:14:28;;;;;;;5.65;1.45;;;6.10;99.90;;;;;;5066528;28;20047;-59
2023/05/16 04:16:56;;;;;;;8.10;2.00;;;6.00;99.90;;;;;;5070598;28;20047;-58
2023/05/16 04:19:24;;;;;;;5.35;1.25;;;6.00;99.90;;;;;;5071753;28;20048;-59
2023/05/16 04:21:52;;;;;;;14.23;1.60;;;6.00;99.90;;;;;;5054861;28;20649;-58
2023/05/16 04:24:20;;;;;;;10.05;1.92;;;6.00;99.90;;;;;;5073917;28;20387;-59
2023/05/16 04:26:48;;;;;;;8.02;1.35;;;6.00;99.90;;;;;;5073250;28;20052;-56
2023/05/16 04:29:16;;;;;;;11.52;1.58;;;6.10;99.90;;;;;;5070783;28;20052;-58
2023/05/16 04:31:43;;;;;;;4.50;1.63;;;6.10;99.90;;;;;;5054500;28;20400;-58
2023/05/16 04:34:12;;;;;;;4.97;1.88;;;6.10;99.90;;;;;;5085630;28;20044;-60
2023/05/16 04:36:39;;;;;;;2.63;1.38;;;6.00;99.90;;;;;;5071240;28;20582;-58
2023/05/16 04:39:07;;;;;;;11.15;2.42;;;6.10;99.90;;;;;;5073882;28;20048;-58
2023/05/16 04:41:35;;;;;;;7.18;1.48;;;6.10;99.90;;;;;;5072755;28;20468;-58
2023/05/16 04:44:03;;;;;;;8.43;1.42;;;6.00;99.90;;;;;;5074114;28;20044;-59
2023/05/16 04:46:31;;;;;;;34.88;3.92;;;6.10;99.90;;;;;;5071985;28;20037;-56
2023/05/16 04:48:59;;;;;;;8.40;1.95;;;6.00;99.90;;;;;;5053123;28;20048;-59
2023/05/16 04:51:27;;;;;;;5.57;1.40;;;6.00;99.90;;;;;;5066024;28;20055;-59
2023/05/16 04:53:58;;;;;;;8.23;1.35;;;6.00;99.90;;;;;;5070711;28;20063;-60
2023/05/16 04:56:26;;;;;;;10.90;1.83;;;6.00;99.90;;;;;;5070737;28;20488;-58
2023/05/16 04:58:54;;;;;;;7.05;1.60;;;6.00;99.90;;;;;;5067444;28;20056;-58
2023/05/16 05:01:22;;;;;;;6.60;1.50;;;6.10;99.90;;;;;;5070257;28;20357;-57
2023/05/16 05:03:50;;;;;;;7.45;1.40;;;6.10;99.90;;;;;;5061770;28;20063;-58
2023/05/16 05:06:18;;;;;;;9.05;1.88;;;6.10;99.90;;;;;;5066886;28;20420;-57
2023/05/16 05:08:45;;;;;;;10.85;1.48;;;6.00;99.90;;;;;;5066641;28;20040;-58
2023/05/16 05:11:14;;;;;;;6.32;1.25;;;6.10;99.90;;;;;;5065614;28;20044;-59
2023/05/16 05:13:42;;;;;;;12.18;1.70;;;5.90;99.90;;;;;;5062468;28;20511;-58
2023/05/16 05:16:10;;;;;;;4.65;1.77;;;6.20;99.90;;;;;;5060973;28;20044;-59
2023/05/16 05:18:38;;;;;;;7.43;1.42;;;6.20;99.90;;;;;;5049900;28;20045;-58
2023/05/16 05:21:06;;;;;;;6.25;1.55;;;6.30;99.90;;;;;;5050632;28;20049;-61
2023/05/16 05:23:37;;;;;;;7.43;1.23;;;;;;;;;;5064772;28;20048;-59
2023/05/16 05:26:05;;;;;;;12.70;1.58;;;6.30;99.90;;;;;;5066652;28;20048;-60
2023/05/16 05:28:33;;;;;;;15.95;2.72;;;6.40;99.90;;;;;;5058418;28;20040;-59
2023/05/16 05:31:01;;;;;;;9.80;2.10;;;6.40;99.90;;;;;;5067158;28;20395;-60
2023/05/16 05:33:29;;;;;;;7.82;1.67;;;6.40;99.90;;;;;;5071873;28;20053;-60
2023/05/16 05:35:57;;;;;;;7.95;1.67;;;6.50;99.90;;;;;;5067255;28;20049;-59
2023/05/16 05:38:25;;;;;;;11.50;1.70;;;6.50;99.90;;;;;;5066226;28;20052;-59
2023/05/16 05:40:53;;;;;;;8.52;1.60;;;6.60;99.90;;;;;;5067013;28;20055;-59
2023/05/16 05:43:21;;;;;;;4.63;1.30;;;6.60;99.90;;;;;;5064098;28;20049;-58
2023/05/16 05:45:49;;;;;;;7.80;1.33;;;6.60;99.90;;;;;;5063192;28;20044;-58
2023/05/16 05:48:17;;;;;;;7.32;1.27;;;6.70;99.90;;;;;;5059236;28;20067;-56
2023/05/16 05:50:45;;;;;;;8.57;1.30;;;6.80;99.90;;;;;;5064565;28;20041;-58
2023/05/16 05:53:13;;;;;;;12.20;1.60;;;6.90;99.90;;;;;;5069281;28;20400;-56
2023/05/16 05:55:41;;;;;;;7.75;1.95;;;7.00;99.90;;;;;;5069234;28;20512;-57
2023/05/16 05:58:09;;;;;;;8.65;1.88;;;7.00;99.90;;;;;;5069382;28;20055;-58
2023/05/16 06:00:37;;;;;;;6.90;1.17;;;7.10;99.90;;;;;;5068426;28;20056;-57
2023/05/16 06:03:05;;;;;;;5.50;1.55;;;7.10;99.90;;;;;;5073050;28;20037;-58
2023/05/16 06:05:33;;;;;;;7.28;1.50;;;7.20;99.90;;;;;;5069334;28;20052;-57
2023/05/16 06:08:01;;;;;;;6.57;1.70;;;7.30;99.90;;;;;;5069300;28;20056;-57
2023/05/16 06:10:30;;;;;;;7.43;1.30;;;7.40;99.90;;;;;;5069331;28;20403;-56
2023/05/16 06:12:58;;;;;;;6.07;1.50;;;7.40;99.90;;;;;;5067407;28;20498;-58
2023/05/16 06:15:27;;;;;;;13.20;1.70;;;7.50;99.90;;;;;;5071121;28;20056;-58
2023/05/16 06:17:55;;;;;;;9.82;1.55;;;7.50;99.90;;;;;;5062519;28;20052;-58
2023/05/16 06:20:23;;;;;;;11.30;1.65;;;7.60;99.90;;;;;;5062604;28;20071;-58
2023/05/16 06:22:50;;;;;;;5.28;1.38;;;7.70;99.90;;;;;;5061358;28;20412;-59
2023/05/16 06:25:18;;;;;;;14.02;2.13;;;7.70;99.90;;;;;;5057590;28;20045;-56
2023/05/16 06:27:46;;;;;;;7.78;1.60;;;7.80;99.90;;;;;;5045743;28;20049;-56
2023/05/16 06:30:14;;;;;;;10.00;1.40;;;8.10;99.90;;;;;;5045473;28;20037;-59
2023/05/16 06:32:42;;;;;;;7.72;1.75;;;8.10;99.90;;;;;;5055072;28;20044;-56
2023/05/16 06:35:10;;;;;;;11.38;1.55;;;8.30;99.90;;;;;;5066134;28;20064;-56
2023/05/16 06:37:38;;;;;;;7.68;1.52;;;8.50;99.90;;;;;;5068803;28;20055;-57
2023/05/16 06:40:10;;;;;;;7.05;1.40;;;8.60;99.90;;;;;;5068231;28;20036;-58
2023/05/16 06:42:38;;;;;;;6.07;1.20;;;8.80;99.90;;;;;;5067077;28;20482;-57
2023/05/16 06:45:07;;;;;;;5.05;1.10;;;8.90;99.90;;;;;;5077894;28;20396;-57
2023/05/16 06:47:35;;;;;;;6.38;1.30;;;9.10;99.90;;;;;;5067048;28;20060;-57
2023/05/16 06:50:07;;;;;;;7.65;1.92;;;9.30;99.90;;;;;;5062147;28;20048;-58
2023/05/16 06:52:35;;;;;;;9.35;1.20;;;9.40;99.90;;;;;;5064200;28;20484;-59
2023/05/16 06:55:03;;;;;;;8.43;1.58;;;9.40;99.90;;;;;;5068162;28;20060;-58
2023/05/16 06:57:31;;;;;;;8.02;1.42;;;9.50;99.90;;;;;;5063131;28;20515;-58
2023/05/16 06:59:59;;;;;;;12.77;2.10;;;9.60;99.90;;;;;;5053086;28;20049;-60
2023/05/16 07:02:27;;;;;;;11.43;3.00;;;9.80;99.90;;;;;;5053837;28;20043;-58
2023/05/16 07:04:57;;;;;;;4.90;1.55;;;9.90;99.90;;;;;;5049788;28;20053;-57
2023/05/16 07:07:26;;;;;;;12.02;1.70;;;9.90;99.90;;;;;;5056284;28;20037;-58
2023/05/16 07:09:54;;;;;;;7.13;1.77;;;10.10;99.90;;;;;;5058760;28;20057;-58
2023/05/16 07:12:22;;;;;;;9.18;2.20;;;10.20;99.90;;;;;;5052535;28;20052;-58
2023/05/16 07:14:50;;;;;;;12.07;2.13;;;10.20;99.90;;;;;;5057167;28;20049;-59
2023/05/16 07:17:18;;;;;;;7.00;1.58;;;10.30;99.90;;;;;;5064737;28;20056;-56
2023/05/16 07:19:46;;;;;;;14.20;2.05;;;10.30;99.90;;;;;;5052977;28;20049;-57
2023/05/16 07:22:14;;;;;;;7.63;2.03;;;10.30;99.90;;;;;;5048244;28;20041;-58
2023/05/16 07:24:43;;;;;;;13.18;1.80;;;10.40;99.90;;;;;;5060601;28;20487;-57
2023/05/16 07:27:10;;;;;;;9.25;1.60;;;10.40;99.90;;;;;;5067921;28;20055;-57
2023/05/16 07:29:40;;;;;;;10.90;1.83;;;10.40;99.90;;;;;;5066488;28;20511;-58
2023/05/16 07:32:08;;;;;;;8.27;1.70;;;10.50;99.90;;;;;;5069332;28;20381;-58
2023/05/16 07:34:36;;;;;;;9.70;2.05;;;10.60;99.90;;;;;;5059080;28;20052;-58
2023/05/16 07:37:06;;;;;;;6.70;2.00;;;10.60;99.90;;;;;;5056434;28;20041;-60
2023/05/16 07:39:34;;;;;;;8.27;2.15;;;10.70;99.90;;;;;;5059551;28;20052;-59
2023/05/16 07:42:03;;;;;;;18.73;2.00;;;10.80;99.90;;;;;;5051620;28;20040;-59
2023/05/16 07:44:31;;;;;;;10.18;2.10;;;10.80;99.90;;;;;;5066248;28;20056;-58
2023/05/16 07:46:59;;;;;;;8.85;2.58;;;11.00;99.90;;;;;;5066512;28;20052;-62
2023/05/16 07:49:28;;;;;;;8.63;1.88;;;11.00;99.90;;;;;;5055537;28;20040;-58
2023/05/16 07:51:56;;;;;;;12.52;2.08;;;11.10;99.90;;;;;;5070230;28;20422;-59
2023/05/16 07:54:23;;;;;;;13.70;1.98;;;11.20;99.90;;;;;;5077249;28;20415;-60
2023/05/16 07:56:54;;;;;;;15.05;1.83;;;11.30;99.90;;;;;;5072122;28;20530;-59
2023/05/16 07:59:25;;;;;;;8.68;2.42;;;11.30;99.90;;;;;;5071413;28;20044;-60
2023/05/16 08:01:55;;;;;;;9.55;2.03;;;11.60;99.90;;;;;;5071775;28;20049;-61
2023/05/16 08:04:23;;;;;;;13.45;3.85;;;11.50;99.90;;;;;;5079612;28;20041;-60
2023/05/16 08:06:51;;;;;;;13.52;2.45;;;11.70;99.90;;;;;;5070439;28;20503;-61
2023/05/16 08:09:19;;;;;;;8.98;2.08;;;11.80;99.90;;;;;;5070124;28;20492;-63
2023/05/16 08:11:47;;;;;;;10.95;2.63;;;11.80;99.90;;;;;;5071753;28;20040;-60
2023/05/16 08:14:16;;;;;;;10.40;2.53;;;11.90;99.90;;;;;;5045018;28;20044;-58
2023/05/16 08:16:44;;;;;;;9.40;3.13;;;12.00;99.90;;;;;;5051862;28;20041;-58
2023/05/16 08:19:12;;;;;;;11.82;2.40;;;12.00;99.90;;;;;;5051515;28;20041;-57
2023/05/16 08:21:40;;;;;;;12.02;3.40;;;12.10;99.90;;;;;;5063789;28;20572;-58
2023/05/16 08:24:10;;;;;;;10.45;2.80;;;12.10;99.90;;;;;;5081487;28;20063;-56
2023/05/16 08:26:37;;;;;;;16.85;3.20;;;12.20;99.90;;;;;;5081932;28;20063;-57
2023/05/16 08:29:05;;;;;;;16.33;3.45;;;12.30;99.90;;;;;;5070795;28;20071;-58
2023/05/16 08:31:33;;;;;;;22.08;3.88;;;12.30;99.90;;;;;;5070390;28;20047;-56
2023/05/16 08:34:01;;;;;;;18.38;3.35;;;12.40;99.90;;;;;;5074272;28;20049;-57
2023/05/16 08:36:30;;;;;;;14.75;3.75;;;12.50;99.90;;;;;;5051196;28;20056;-57
2023/05/16 08:38:58;;;;;;;18.20;3.35;;;12.60;99.90;;;;;;5082565;28;20048;-61
2023/05/16 08:41:26;;;;;;;14.98;2.95;;;12.60;99.90;;;;;;5088738;28;20395;-58
2023/05/16 08:43:54;;;;;;;8.23;3.33;;;12.70;99.90;;;;;;5067471;28;20415;-58
2023/05/16 08:46:27;;;;;;;11.30;3.63;;;12.70;99.90;;;;;;5067293;28;20049;-59
2023/05/16 08:49:00;;;;;;;13.40;4.07;;;12.80;99.90;;;;;;5069318;28;20491;-61
2023/05/16 08:51:34;;;;;;;21.23;4.40;;;12.80;99.90;;;;;;5054889;28;20040;-58
2023/05/16 08:54:07;;;;;;;14.80;3.63;;;12.80;99.90;;;;;;5059508;28;20597;-58
2023/05/16 08:56:37;;;;;;;11.55;4.43;;;12.80;99.90;;;;;;5050394;28;20829;-58
2023/05/16 08:59:05;;;;;;;10.10;3.47;;;12.70;99.90;;;;;;5069033;28;20056;-58
2023/05/16 09:01:33;;;;;;;21.48;4.32;;;12.70;99.90;;;;;;5055281;28;20480;-57
2023/05/16 09:04:04;;;;;;;14.38;3.92;;;12.60;99.90;;;;;;5075304;28;20051;-56
2023/05/16 09:06:32;;;;;;;11.15;4.15;;;12.70;99.90;;;;;;5050589;28;20041;-57
2023/05/16 09:09:01;;;;;;;11.30;4.45;;;12.80;99.90;;;;;;5064482;28;20450;-59
2023/05/16 09:11:29;;;;;;;10.13;3.45;;;12.90;99.90;;;;;;5068633;28;20504;-57
2023/05/16 09:13:57;;;;;;;14.52;4.43;;;13.20;99.90;;;;;;5068574;28;20384;-58
2023/05/16 09:16:24;;;;;;;11.45;4.13;;;13.20;99.90;;;;;;5070430;28;20040;-58
2023/05/16 09:18:55;;;;;;;9.43;3.75;;;13.30;99.90;;;;;;5070276;28;20049;-59
2023/05/16 09:21:27;;;;;;;12.13;4.45;;;13.50;99.90;;;;;;5053609;28;20037;-60
2023/05/16 09:23:55;;;;;;;10.80;3.33;;;13.60;99.90;;;;;;5079570;28;20044;-58
2023/05/16 09:26:25;;;;;;;10.57;3.88;;;13.70;99.90;;;;;;5071953;28;20048;-59
2023/05/16 09:28:56;;;;;;;9.55;3.80;;;13.80;99.90;;;;;;5064807;28;20040;-58
2023/05/16 09:31:26;;;;;;;11.90;3.65;;;13.80;99.90;;;;;;5047853;28;20496;-57
2023/05/16 09:33:57;;;;;;;19.35;4.45;;;13.90;99.90;;;;;;5075311;28;20056;-57
2023/05/16 09:36:25;;;;;;;16.55;3.92;;;14.00;99.90;;;;;;5052489;28;20041;-58
2023/05/16 09:38:53;;;;;;;17.05;3.40;;;14.10;99.90;;;;;;5083532;28;20048;-60
2023/05/16 09:41:21;;;;;;;13.63;3.90;;;14.10;99.90;;;;;;5090278;28;20379;-58
2023/05/16 09:43:49;;;;;;;10.20;2.97;;;14.20;99.90;;;;;;5067048;28;20040;-58
2023/05/16 09:46:24;;;;;;;13.45;3.55;;;14.20;99.90;;;;;;5059189;28;20206;-57
2023/05/16 09:48:55;;;;;;;13.63;4.18;;;14.20;99.90;;;;;;5062115;28;20593;-58
2023/05/16 09:51:23;;;;;;;;;;;14.20;99.90;;;;;;5065131;28;20045;-58
2023/05/16 09:53:50;;;;;;;11.07;3.47;;;14.30;99.90;;;;;;5058341;28;19928;-59
2023/05/16 09:56:18;;;;;;;16.38;3.75;;;14.60;99.90;;;;;;5068143;28;20044;-57
2023/05/16 09:58:46;;;;;;;16.92;4.93;;;14.70;99.90;;;;;;5069536;28;20061;-58
2023/05/16 10:01:15;;;;;;;11.98;3.50;;;14.70;99.90;;;;;;5069607;28;20041;-58
2023/05/16 10:03:43;;;;;;;16.58;3.97;;;14.80;99.90;;;;;;5076416;28;20488;-58
2023/05/16 10:06:12;;;;;;;15.65;3.00;;;14.90;99.90;;;;;;5068488;28;20044;-59
2023/05/16 10:08:41;;;;;;;15.57;4.18;;;14.90;99.90;;;;;;5066077;28;20044;-58
2023/05/16 10:11:10;;;;;;;8.82;3.13;;;14.90;99.90;;;;;;5065709;28;20056;-58
2023/05/16 10:13:39;;;;;;;18.42;3.88;;;14.90;99.90;;;;;;5059990;28;20483;-56
2023/05/16 10:16:10;;;;;;;18.67;4.53;;;14.90;99.90;;;;;;5060767;28;20480;-62
2023/05/16 10:18:40;;;;;;;14.32;4.22;;;15.00;99.90;;;;;;5064518;28;20578;-60
2023/05/16 10:21:15;;;;;;;12.75;3.75;;;15.00;99.90;;;;;;5051626;28;20526;-60
2023/05/16 10:23:48;;;;;;;15.93;3.75;;;15.00;99.90;;;;;;5068635;28;20045;-58
2023/05/16 10:26:17;;;;;;;16.10;4.82;;;14.90;99.90;;;;;;5068582;28;20431;-57
2023/05/16 10:28:46;;;;;;;13.52;3.67;;;15.00;99.90;;;;;;5063742;28;20044;-58
2023/05/16 10:31:16;;;;;;;14.93;4.00;;;15.00;99.90;;;;;;5063604;28;20047;-60
2023/05/16 10:33:46;;;;;;;21.88;3.83;;;15.00;99.90;;;;;;5071848;28;20045;-60
2023/05/16 10:36:15;;;;;;;10.43;3.13;;;15.10;99.90;;;;;;5066259;28;20499;-63
2023/05/16 10:38:45;;;;;;;12.43;3.30;;;15.20;99.90;;;;;;5067888;28;20540;-62
2023/05/16 10:41:13;;;;;;;7.07;2.85;;;15.30;99.90;;;;;;5068605;28;20292;-62
2023/05/16 10:43:45;;;;;;;9.45;3.00;;;15.50;99.90;;;;;;5068640;28;20368;-62
2023/05/16 10:46:13;;;;;;;13.63;3.83;;;15.70;99.90;;;;;;5065687;28;20044;-58
2023/05/16 10:48:42;;;;;;;28.48;4.70;;;15.80;99.90;;;;;;5067248;28;20048;-58
2023/05/16 10:51:22;;;;;;;13.63;3.25;;;15.80;99.90;;;;;;5063315;28;20053;-57
2023/05/16 10:53:50;;;;;;;;;;;15.80;99.90;;;;;;5056986;28;20036;-58
2023/05/16 10:56:26;;;;;;;13.73;4.72;;;16.00;99.90;;;;;;5068534;28;19924;-60
2023/05/16 10:58:55;;;;;;;19.80;3.50;;;16.10;99.90;;;;;;5061989;28;20059;-58
2023/05/16 11:01:33;;;;;;;11.43;3.88;;;16.20;99.90;;;;;;5059111;28;20052;-59
2023/05/16 11:04:10;;;;;;;12.50;2.88;;;16.30;99.90;;;;;;5074427;28;20048;-58
2023/05/16 11:06:41;;;;;;;13.65;3.45;;;16.40;99.90;;;;;;5053836;28;20052;-61
2023/05/16 11:09:12;;;;;;;12.20;3.60;;;16.50;99.90;;;;;;5060699;28;20067;-61
2023/05/16 11:11:52;;;;;;;12.75;3.55;;;16.60;99.90;;;;;;5057295;28;20052;-61
2023/05/16 11:14:34;;;;;;;12.80;3.50;;;16.70;99.90;;;;;;5067989;28;20472;-58
2023/05/16 11:17:20;;;;;;;16.95;2.95;;;16.80;99.90;;;;;;5067410;28;20067;-58
2023/05/16 11:19:57;;;;;;;9.52;3.00;;;16.80;99.90;;;;;;5067443;28;22005;-60
2023/05/16 11:22:29;;;;;;;13.80;3.05;;;16.70;99.90;;;;;;5055730;28;20504;-60
2023/05/16 11:25:05;;;;;;;13.27;2.97;;;16.80;99.90;;;;;;5067254;28;20049;-58
2023/05/16 11:27:45;;;;;;;9.63;2.80;;;16.90;99.90;;;;;;5067683;28;20063;-57
2023/05/16 11:30:16;;;;;;;14.73;2.80;;;17.10;99.90;;;;;;5068120;28;20045;-60
2023/05/16 11:32:45;;;;;;;17.50;3.70;;;17.20;99.90;;;;;;5072506;28;20055;-59
2023/05/16 11:35:16;;;;;;;14.13;2.88;;;17.20;99.90;;;;;;5065878;28;20053;-60
2023/05/16 11:37:46;;;;;;;14.43;2.70;;;17.30;99.90;;;;;;5053789;28;20583;-61
2023/05/16 11:40:15;;;;;;;9.48;2.63;;;17.60;99.90;;;;;;5066325;28;20060;-63
2023/05/16 11:42:47;;;;;;;15.57;3.57;;;18.00;99.80;;;;;;5066219;28;20044;-59
2023/05/16 11:45:17;;;;;;;11.52;3.30;;;18.00;99.90;;;;;;5072366;28;20043;-60
2023/05/16 11:47:46;;;;;;;12.40;3.30;;;18.10;99.90;;;;;;5066208;28;20037;-64
2023/05/16 11:50:19;;;;;;;;;;;18.20;99.60;;;;;;5066658;28;20049;-60
2023/05/16 11:52:52;;;;;;;16.80;3.83;;;18.20;98.40;;;;;;5057171;28;19920;-59
2023/05/16 11:55:31;;;;;;;15.07;3.60;;;18.20;98.80;;;;;;5062302;28;20044;-61
2023/05/16 11:58:11;;;;;;;20.77;3.70;;;18.10;99.20;;;;;;5067063;28;20053;-61
2023/05/16 12:00:47;;;;;;;19.05;3.55;;;18.00;99.90;;;;;;5065971;28;20047;-60
2023/05/16 12:03:18;;;;;;;15.82;3.72;;;18.00;99.90;;;;;;5071754;28;20044;-59
2023/05/16 12:05:54;;;;;;;14.50;3.45;;;18.30;99.90;;;;;;5064844;28;20056;-57
2023/05/16 12:08:23;;;;;;;11.35;3.30;;;18.50;99.50;;;;;;5057511;28;20480;-62
2023/05/16 12:10:52;;;;;;;13.48;3.53;;;18.40;98.20;;;;;;5066932;28;20056;-61
2023/05/16 12:13:22;;;;;;;18.92;3.80;;;18.30;98.40;;;;;;5065081;28;20051;-61
2023/05/16 12:15:51;;;;;;;17.55;2.65;;;18.40;99.90;;;;;;5067784;28;20055;-62
2023/05/16 12:18:20;;;;;;;11.70;2.55;;;18.70;98.10;;;;;;5066006;28;20044;-60
2023/05/16 12:20:48;;;;;;;13.33;3.40;;;18.80;97.70;;;;;;5063273;28;20083;-58
2023/05/16 12:23:16;;;;;;;8.68;3.08;;;18.70;98.00;;;;;;5057518;28;20052;-58
2023/05/16 12:25:46;;;;;;;13.63;3.70;;;18.70;99.00;;;;;;5067764;28;20522;-63
2023/05/16 12:28:15;;;;;;;17.10;3.28;;;18.60;98.70;;;;;;5067098;28;20049;-60
2023/05/16 12:30:46;;;;;;;12.98;3.58;;;18.60;99.20;;;;;;5066353;28;20044;-62
2023/05/16 12:33:15;;;;;;;16.90;3.85;;;18.70;99.90;;;;;;5074452;28;20043;-58
2023/05/16 12:35:45;;;;;;;28.67;3.35;;;18.80;99.90;;;;;;5064073;28;20491;-59
2023/05/16 12:38:15;;;;;;;12.60;3.17;;;19.10;99.90;;;;;;5065703;28;20492;-62
2023/05/16 12:40:44;;;;;;;15.20;3.40;;;19.30;98.10;;;;;;5070909;28;20048;-60
2023/05/16 12:43:22;;;;;;;9.50;3.40;;;19.10;96.10;;;;;;5070971;28;20047;-59
2023/05/16 12:45:57;;;;;;;12.50;3.40;;;18.80;97.40;;;;;;5069217;28;20403;-60
2023/05/16 12:48:34;;;;;;;10.65;3.05;;;18.60;98.90;;;;;;5068569;28;20484;-61
2023/05/16 12:51:12;;;;;;;12.15;3.40;;;18.70;99.90;;;;;;5067902;28;20115;-59
2023/05/16 12:53:44;;;;;;;19.23;3.90;;;19.20;99.90;;;;;;5056993;28;20053;-59
2023/05/16 12:56:39;;;;;;;14.48;2.90;;;19.60;98.10;;;;;;5058160;28;20407;-59
2023/05/16 12:59:07;;;;;;;14.57;3.22;;;20.00;98.00;;;;;;5066736;28;20047;-62
2023/05/16 13:01:37;;;;;;;17.25;3.45;;;20.40;96.60;;;;;;5066498;28;20532;-59